HKNW/WIL METAR and TAF weather

Enter ICAO airport designator
Station Type Date Time Source
HKNW METAR 2019/04/19 21:00 UTC NOAA

HKNW 192100Z 08012KT 9999 SCT024 22/15 Q1021


Station Type Date Time Source
HKNW Decoded METAR 2019/04/19 21:00 UTC NOAA

Nairobi / Wilson, Kenya (HKNW) 01-19S 036-49E 1679M
Apr 19, 2019 - 05:00 PM EDT / 2019.04.19 2100 UTC
Wind: from the E (080 degrees) at 14 MPH (12 KT):0
Visibility: greater than 7 mile(s):0
Sky conditions: partly cloudy
Temperature: 71 F (22 C)
Dew Point: 59 F (15 C)
Relative Humidity: 64%
Pressure (altimeter): 30.15 in. Hg (1021 hPa)
ob: HKNW 192100Z 08012KT 9999 SCT024 22/15 Q1021
cycle: 21

Station Type Date Time Source
HKNW TAF 2012/11/22 12:18 UTC NOAA

TAF TAF HKNW 221030Z 2212/2312 03010KT 9999 FEW025CB SCT026
TEMPO 2212/2218 VRB10KT -SHRA FEW024CB BKN025
BECMG 2220/2223 07005KT CAVOK
TEMPO 2300/2300 VRB05KT 9999 FEW006 BKN016
BECMG 2308/2311 08010KT SCT026

Example: see airport list